createdAt,value
2023-04-22T00:00:03.184Z,10.49
2023-04-22T00:01:03.219Z,10.49
2023-04-22T00:02:03.228Z,10.56
2023-04-22T00:03:03.319Z,10.44
2023-04-22T00:04:03.334Z,10.48
2023-04-22T00:05:03.357Z,10.37
2023-04-22T00:06:03.143Z,10.30
2023-04-22T00:07:04.244Z,10.30
2023-04-22T00:08:04.228Z,10.30
2023-04-22T00:09:04.261Z,10.25
2023-04-22T00:10:04.216Z,10.26
2023-04-22T00:11:04.209Z,10.23
2023-04-22T00:12:04.197Z,10.28
2023-04-22T00:13:04.215Z,10.22
2023-04-22T00:14:05.214Z,10.15
2023-04-22T00:15:04.265Z,10.20
2023-04-22T00:16:04.185Z,10.16
2023-04-22T00:17:04.206Z,10.23
2023-04-22T00:18:04.199Z,10.20
2023-04-22T00:19:04.148Z,10.22
2023-04-22T00:20:04.131Z,10.16
2023-04-22T00:21:04.129Z,10.15
2023-04-22T00:22:47.093Z,10.13
2023-04-22T00:23:47.087Z,10.01
2023-04-22T00:24:47.080Z,10.04
2023-04-22T00:25:50.410Z,9.95
2023-04-22T00:26:49.179Z,9.97
2023-04-22T00:27:48.179Z,9.89
2023-04-22T00:28:48.142Z,9.94
2023-04-22T00:29:48.151Z,9.86
2023-04-22T00:30:48.121Z,9.86
2023-04-22T00:31:48.201Z,9.84
2023-04-22T00:32:48.213Z,9.80
2023-04-22T00:33:48.119Z,9.83
2023-04-22T00:34:48.099Z,9.80
2023-04-22T00:35:48.097Z,9.73
2023-04-22T00:36:48.079Z,9.73
2023-04-22T00:37:48.086Z,9.69
2023-04-22T00:38:48.058Z,9.69
2023-04-22T00:39:48.047Z,9.66
2023-04-22T00:40:48.048Z,9.65
2023-04-22T00:41:48.066Z,9.66
2023-04-22T00:42:48.032Z,9.68
2023-04-22T00:43:48.033Z,9.61
2023-04-22T00:44:48.021Z,9.58
2023-04-22T00:45:48.517Z,9.58
2023-04-22T00:46:48.002Z,9.58
2023-04-22T00:47:48.090Z,9.65
2023-04-22T00:48:47.977Z,9.58
2023-04-22T00:49:47.967Z,9.51
2023-04-22T00:50:47.976Z,9.58
2023-04-22T00:51:47.980Z,9.56
2023-04-22T00:52:47.958Z,9.54
2023-04-22T00:53:47.955Z,9.55
2023-04-22T00:54:47.940Z,9.61
2023-04-22T00:55:47.959Z,9.59
2023-04-22T00:56:47.922Z,9.58
2023-04-22T00:57:47.913Z,9.64
2023-04-22T00:58:48.539Z,9.65
2023-04-22T00:59:47.917Z,9.64
2023-04-22T01:00:48.491Z,9.68
2023-04-22T01:01:47.929Z,9.61
2023-04-22T01:02:48.120Z,9.62
2023-04-22T01:03:48.104Z,9.65
2023-04-22T01:04:47.892Z,9.69
2023-04-22T01:05:47.848Z,9.66
2023-04-22T01:06:47.857Z,9.68
2023-04-22T01:07:47.824Z,9.64
2023-04-22T01:08:47.832Z,9.58
2023-04-22T01:09:47.827Z,9.51
2023-04-22T01:10:47.799Z,9.50
2023-04-22T01:11:47.792Z,9.56
2023-04-22T01:12:47.784Z,9.58
2023-04-22T01:13:47.778Z,9.41
2023-04-22T01:14:47.782Z,9.40
2023-04-22T01:15:47.760Z,9.36
2023-04-22T01:16:47.821Z,9.32
2023-04-22T01:17:47.861Z,9.36
2023-04-22T01:18:47.772Z,9.39
2023-04-22T01:19:47.751Z,9.32
2023-04-22T01:20:47.721Z,9.32
2023-04-22T01:21:48.567Z,9.26
2023-04-22T01:22:48.458Z,9.28
2023-04-22T01:23:47.709Z,9.34
2023-04-22T01:24:47.687Z,9.34
2023-04-22T01:25:47.690Z,9.36
2023-04-22T01:26:47.683Z,9.31
2023-04-22T01:27:47.667Z,9.34
2023-04-22T01:28:47.672Z,9.25
2023-04-22T01:29:47.662Z,9.34
2023-04-22T01:30:47.649Z,9.21
2023-04-22T01:31:47.680Z,9.32
2023-04-22T01:32:47.711Z,9.26
2023-04-22T01:33:47.623Z,9.29
2023-04-22T01:34:48.979Z,9.36
2023-04-22T01:35:48.450Z,9.34
2023-04-22T01:36:50.927Z,9.29
2023-04-22T01:37:47.598Z,9.37
2023-04-22T01:38:47.605Z,9.34
2023-04-22T01:39:55.545Z,9.31
2023-04-22T01:40:50.491Z,9.36
2023-04-22T01:41:48.567Z,9.26
2023-04-22T01:42:47.721Z,9.39
2023-04-22T01:43:48.701Z,9.40
2023-04-22T01:44:48.593Z,9.37
2023-04-22T01:45:48.193Z,9.32
2023-04-22T01:46:47.523Z,9.43
2023-04-22T01:47:47.622Z,9.46
2023-04-22T01:48:47.503Z,9.46
2023-04-22T01:49:47.497Z,9.41
2023-04-22T01:50:48.548Z,9.47
2023-04-22T01:51:47.480Z,9.41
2023-04-22T01:52:47.514Z,9.43
2023-04-22T01:53:47.457Z,9.48
2023-04-22T01:54:47.467Z,9.44
2023-04-22T01:55:47.469Z,9.37
2023-04-22T01:56:47.435Z,9.43
2023-04-22T01:57:47.439Z,9.44
2023-04-22T01:58:47.417Z,9.43
2023-04-22T01:59:48.427Z,9.40
2023-04-22T02:00:47.420Z,9.48
2023-04-22T02:01:47.444Z,9.39
2023-04-22T02:02:47.511Z,9.47
2023-04-22T02:03:47.463Z,9.39
2023-04-22T02:04:47.402Z,9.47
2023-04-22T02:05:47.366Z,9.46
2023-04-22T02:06:47.379Z,9.55
2023-04-22T02:07:47.374Z,9.54
2023-04-22T02:08:47.350Z,9.51
2023-04-22T02:09:48.735Z,9.48
2023-04-22T02:10:47.319Z,9.48
2023-04-22T02:11:47.322Z,9.43
2023-04-22T02:12:47.313Z,9.46
2023-04-22T02:13:47.330Z,9.41
2023-04-22T02:14:47.305Z,9.50
2023-04-22T02:15:48.117Z,9.37
2023-04-22T02:16:47.307Z,9.43
2023-04-22T02:17:47.277Z,9.50
2023-04-22T02:18:47.270Z,9.43
2023-04-22T02:19:47.296Z,9.40
2023-04-22T02:20:47.259Z,9.43
2023-04-22T02:21:47.237Z,9.46
2023-04-22T02:22:47.239Z,9.40
2023-04-22T02:23:47.229Z,9.50
2023-04-22T02:24:47.220Z,9.51
2023-04-22T02:25:47.221Z,9.46
2023-04-22T02:26:47.215Z,9.43
2023-04-22T02:27:47.193Z,9.46
2023-04-22T02:28:47.205Z,9.46
2023-04-22T02:29:47.239Z,9.41
2023-04-22T02:30:48.063Z,9.47
2023-04-22T02:31:47.349Z,9.43
2023-04-22T02:32:47.269Z,9.54
2023-04-22T02:33:47.163Z,9.44
2023-04-22T02:34:47.149Z,9.39
2023-04-22T02:35:47.124Z,9.44
2023-04-22T02:36:47.126Z,9.46
2023-04-22T02:37:47.158Z,9.37
2023-04-22T02:38:47.129Z,9.41
2023-04-22T02:39:47.108Z,9.46
2023-04-22T02:40:47.119Z,9.47
2023-04-22T02:41:47.092Z,9.44
2023-04-22T02:42:47.116Z,9.40
2023-04-22T02:43:47.097Z,9.31
2023-04-22T02:44:47.090Z,9.34
2023-04-22T02:45:47.100Z,9.34
2023-04-22T02:46:47.105Z,9.36
2023-04-22T02:47:47.109Z,9.31
2023-04-22T02:48:47.048Z,9.41
2023-04-22T02:49:47.045Z,9.44
2023-04-22T02:50:47.021Z,9.32
2023-04-22T02:51:47.013Z,9.37
2023-04-22T02:52:47.006Z,9.43
2023-04-22T02:53:46.991Z,9.46
2023-04-22T02:54:46.983Z,9.43
2023-04-22T02:55:46.973Z,9.39
2023-04-22T02:56:46.986Z,9.46
2023-04-22T02:57:46.985Z,9.44
2023-04-22T02:58:46.993Z,9.41
2023-04-22T02:59:46.950Z,9.36
2023-04-22T03:00:46.969Z,9.48
2023-04-22T03:01:46.940Z,9.43
2023-04-22T03:02:46.997Z,9.44
2023-04-22T03:03:47.069Z,9.47
2023-04-22T03:04:46.905Z,9.59
2023-04-22T03:05:46.893Z,9.50
2023-04-22T03:06:46.904Z,9.51
2023-04-22T03:07:46.880Z,9.50
2023-04-22T03:08:46.917Z,9.47
2023-04-22T03:09:46.873Z,9.50
2023-04-22T03:10:46.879Z,9.58
2023-04-22T03:11:46.846Z,9.51
2023-04-22T03:12:46.847Z,9.48
2023-04-22T03:13:46.856Z,9.61
2023-04-22T03:14:46.840Z,9.54
2023-04-22T03:15:46.825Z,9.47
2023-04-22T03:16:46.854Z,9.55
2023-04-22T03:17:46.826Z,9.56
2023-04-22T03:18:46.804Z,9.69
2023-04-22T03:19:46.785Z,9.64
2023-04-22T03:20:46.791Z,9.59
2023-04-22T03:21:46.785Z,9.59
2023-04-22T03:22:46.773Z,9.72
2023-04-22T03:23:46.764Z,9.68
2023-04-22T03:24:46.766Z,9.59
2023-04-22T03:25:46.752Z,9.68
2023-04-22T03:26:46.730Z,9.74
2023-04-22T03:27:46.730Z,9.73
2023-04-22T03:28:46.801Z,9.74
2023-04-22T03:29:46.723Z,9.72
2023-04-22T03:30:46.709Z,9.66
2023-04-22T03:31:46.725Z,9.73
2023-04-22T03:32:46.719Z,9.69
2023-04-22T03:33:46.687Z,9.56
2023-04-22T03:34:46.694Z,9.62
2023-04-22T03:35:46.681Z,9.56
2023-04-22T03:36:46.666Z,9.59
2023-04-22T03:37:46.653Z,9.55
2023-04-22T03:38:46.652Z,9.69
2023-04-22T03:39:46.663Z,9.61
2023-04-22T03:40:46.650Z,9.72
2023-04-22T03:41:46.629Z,9.72
2023-04-22T03:42:46.626Z,9.73
2023-04-22T03:43:46.668Z,9.65
2023-04-22T03:44:46.631Z,9.69
2023-04-22T03:45:46.603Z,9.62
2023-04-22T03:46:46.584Z,9.65
2023-04-22T03:47:46.635Z,9.66
2023-04-22T03:48:46.595Z,9.59
2023-04-22T03:49:46.610Z,9.64
2023-04-22T03:50:46.586Z,9.64
2023-04-22T03:51:46.550Z,9.59
2023-04-22T03:52:46.539Z,9.58
2023-04-22T03:53:46.541Z,9.54
2023-04-22T03:54:46.530Z,9.51
2023-04-22T03:55:46.539Z,9.56
2023-04-22T03:56:46.507Z,9.50
2023-04-22T03:57:46.502Z,9.51
2023-04-22T03:58:46.514Z,9.47
2023-04-22T03:59:46.501Z,9.43
2023-04-22T04:00:46.486Z,9.47
2023-04-22T04:01:46.497Z,9.46
2023-04-22T04:02:46.835Z,9.40
2023-04-22T04:03:46.696Z,9.40
2023-04-22T04:04:47.183Z,9.39
2023-04-22T04:05:46.509Z,9.36
2023-04-22T04:06:46.421Z,9.22
2023-04-22T04:07:46.428Z,9.36
2023-04-22T04:08:46.414Z,9.34
2023-04-22T04:09:46.415Z,9.26
2023-04-22T04:10:46.418Z,9.25
2023-04-22T04:11:46.449Z,9.18
2023-04-22T04:12:46.382Z,9.16
2023-04-22T04:13:46.363Z,9.22
2023-04-22T04:14:46.367Z,9.22
2023-04-22T04:15:46.376Z,9.16
2023-04-22T04:16:46.339Z,9.06
2023-04-22T04:17:46.422Z,9.18
2023-04-22T04:18:46.366Z,9.19
2023-04-22T04:19:46.326Z,9.16
2023-04-22T04:20:46.317Z,9.21
2023-04-22T04:21:46.308Z,9.18
2023-04-22T04:22:46.293Z,9.18
2023-04-22T04:23:46.309Z,9.21
2023-04-22T04:24:46.281Z,9.16
2023-04-22T04:25:46.282Z,9.11
2023-04-22T04:26:47.087Z,9.18
2023-04-22T04:27:46.254Z,9.28
2023-04-22T04:28:46.254Z,9.19
2023-04-22T04:29:46.252Z,9.22
2023-04-22T04:30:46.256Z,9.16
2023-04-22T04:31:46.310Z,9.21
2023-04-22T04:32:46.303Z,9.28
2023-04-22T04:33:46.249Z,9.34
2023-04-22T04:34:46.210Z,9.28
2023-04-22T04:35:46.198Z,9.39
2023-04-22T04:36:46.190Z,9.37
2023-04-22T04:37:46.186Z,9.37
2023-04-22T04:38:46.196Z,9.43
2023-04-22T04:39:46.200Z,9.32
2023-04-22T04:40:46.161Z,9.39
2023-04-22T04:41:46.138Z,9.41
2023-04-22T04:42:46.995Z,9.43
2023-04-22T04:43:46.149Z,9.44
2023-04-22T04:44:46.124Z,9.46
2023-04-22T04:45:48.364Z,9.58
2023-04-22T04:46:47.157Z,9.73
2023-04-22T04:47:46.146Z,9.68
2023-04-22T04:48:46.102Z,9.74
2023-04-22T04:49:46.086Z,9.84
2023-04-22T04:50:48.582Z,9.89
2023-04-22T04:51:46.126Z,9.95
2023-04-22T04:52:46.074Z,10.01
2023-04-22T04:53:46.105Z,9.98
2023-04-22T04:54:46.072Z,10.09
2023-04-22T04:55:46.045Z,10.05
2023-04-22T04:56:46.026Z,10.10
2023-04-22T04:57:46.021Z,10.05
2023-04-22T04:58:46.032Z,10.02
2023-04-22T04:59:46.040Z,10.01
2023-04-22T05:00:46.005Z,9.83
2023-04-22T05:01:46.089Z,9.95
2023-04-22T05:02:46.025Z,9.89
2023-04-22T05:03:46.147Z,10.07
2023-04-22T05:04:46.079Z,10.13
2023-04-22T05:05:45.960Z,10.19
2023-04-22T05:06:45.947Z,10.30
2023-04-22T05:07:45.941Z,10.35
2023-04-22T05:08:45.940Z,10.30
2023-04-22T05:09:45.987Z,10.35
2023-04-22T05:10:45.910Z,10.44
2023-04-22T05:11:45.925Z,10.56
2023-04-22T05:12:45.927Z,10.64
2023-04-22T05:13:46.543Z,10.72
2023-04-22T05:14:45.896Z,10.92
2023-04-22T05:15:46.636Z,11.04
2023-04-22T05:16:45.928Z,11.07
2023-04-22T05:17:46.033Z,11.04
2023-04-22T05:18:45.865Z,11.15
2023-04-22T05:19:45.848Z,11.25
2023-04-22T05:20:45.860Z,11.45
2023-04-22T05:21:45.870Z,11.48
2023-04-22T05:22:45.861Z,11.73
2023-04-22T05:23:47.608Z,12.00
2023-04-22T05:24:45.799Z,12.22
2023-04-22T05:25:45.803Z,12.35
2023-04-22T05:26:45.805Z,12.73
2023-04-22T05:27:45.789Z,13.08
2023-04-22T05:28:45.795Z,13.23
2023-04-22T05:29:45.792Z,13.53
2023-04-22T05:30:45.776Z,13.57
2023-04-22T05:31:45.776Z,13.65
2023-04-22T05:32:45.825Z,14.00
2023-04-22T05:33:46.592Z,13.90
2023-04-22T05:34:45.724Z,14.03
2023-04-22T05:35:46.734Z,14.18
2023-04-22T05:36:45.739Z,14.37
2023-04-22T05:37:45.697Z,14.58
2023-04-22T05:38:45.706Z,14.84
2023-04-22T05:39:45.677Z,15.14
2023-04-22T05:40:45.706Z,15.61
2023-04-22T05:41:47.048Z,15.75
2023-04-22T05:42:46.684Z,15.84
2023-04-22T05:43:45.664Z,16.20
2023-04-22T05:44:45.654Z,16.72
2023-04-22T05:45:45.698Z,17.08
2023-04-22T05:46:45.626Z,17.29
2023-04-22T05:47:45.721Z,17.57
2023-04-22T05:48:45.630Z,17.60
2023-04-22T05:49:45.620Z,17.59
2023-04-22T05:50:45.624Z,17.59
2023-04-22T05:51:45.601Z,17.48
2023-04-22T05:52:45.587Z,17.54
2023-04-22T05:53:45.566Z,17.24
2023-04-22T05:54:45.583Z,17.30
2023-04-22T05:55:45.578Z,17.23
2023-04-22T05:56:45.571Z,17.46
2023-04-22T05:57:46.564Z,17.87
2023-04-22T05:58:45.546Z,18.53
2023-04-22T05:59:46.138Z,19.33
2023-04-22T06:00:45.525Z,19.59
2023-04-22T06:01:45.521Z,19.70
2023-04-22T06:02:45.779Z,20.10
2023-04-22T06:03:45.592Z,20.50
2023-04-22T06:04:45.829Z,20.75
2023-04-22T06:05:45.582Z,21.00
2023-04-22T06:06:45.529Z,20.97
2023-04-22T06:07:45.471Z,20.47
2023-04-22T06:08:45.476Z,20.24
2023-04-22T06:09:45.450Z,20.44
2023-04-22T06:10:45.451Z,20.67
2023-04-22T06:11:45.478Z,20.67
2023-04-22T06:12:45.461Z,20.82
2023-04-22T06:13:45.474Z,20.59
2023-04-22T06:14:45.420Z,20.60
2023-04-22T06:15:47.087Z,20.62
2023-04-22T06:16:46.110Z,20.96
2023-04-22T06:17:45.438Z,21.21
2023-04-22T06:18:45.411Z,21.54
2023-04-22T06:19:45.397Z,22.04
2023-04-22T06:20:45.376Z,22.20
2023-04-22T06:21:45.370Z,21.95
2023-04-22T06:22:45.364Z,21.43
2023-04-22T06:23:45.353Z,21.07
2023-04-22T06:24:46.355Z,20.80
2023-04-22T06:25:45.345Z,20.29
2023-04-22T06:26:45.351Z,20.07
2023-04-22T06:27:45.330Z,20.13
2023-04-22T06:28:45.303Z,20.37
2023-04-22T06:29:45.352Z,20.24
2023-04-22T06:30:45.299Z,19.99
2023-04-22T06:31:45.368Z,20.06
2023-04-22T06:32:45.330Z,19.96
2023-04-22T06:33:45.272Z,19.77
2023-04-22T06:34:45.278Z,19.63
2023-04-22T06:35:45.272Z,19.54
2023-04-22T06:36:45.250Z,19.66
2023-04-22T06:37:45.270Z,19.74
2023-04-22T06:38:45.230Z,19.69
2023-04-22T06:39:45.272Z,19.54
2023-04-22T06:40:45.214Z,19.71
2023-04-22T06:41:45.228Z,19.70
2023-04-22T06:42:45.203Z,19.71
2023-04-22T06:43:46.075Z,19.81
2023-04-22T06:44:45.199Z,19.96
2023-04-22T06:45:45.167Z,19.96
2023-04-22T06:46:45.287Z,20.14
2023-04-22T06:47:45.168Z,20.26
2023-04-22T06:48:45.175Z,20.56
2023-04-22T06:49:45.128Z,20.78
2023-04-22T06:50:45.138Z,21.06
2023-04-22T06:51:45.132Z,20.99
2023-04-22T06:52:45.110Z,21.06
2023-04-22T06:53:45.128Z,21.06
2023-04-22T06:54:45.658Z,21.33
2023-04-22T06:55:46.145Z,21.58
2023-04-22T06:56:45.163Z,21.66
2023-04-22T06:57:45.079Z,21.88
2023-04-22T06:58:45.057Z,22.00
2023-04-22T06:59:46.638Z,22.17
2023-04-22T07:00:46.069Z,22.38
2023-04-22T07:01:45.099Z,22.60
2023-04-22T07:02:45.114Z,22.81
2023-04-22T07:03:45.072Z,23.08
2023-04-22T07:04:45.137Z,23.13
2023-04-22T07:05:45.009Z,23.32
2023-04-22T07:06:45.018Z,23.56
2023-04-22T07:07:44.996Z,23.84
2023-04-22T07:08:45.006Z,24.06
2023-04-22T07:09:45.003Z,24.13
2023-04-22T07:10:44.977Z,24.30
2023-04-22T07:11:44.969Z,24.57
2023-04-22T07:12:44.967Z,24.92
2023-04-22T07:13:44.952Z,25.03
2023-04-22T07:14:44.950Z,25.29
2023-04-22T07:15:44.968Z,25.32
2023-04-22T07:16:45.018Z,25.17
2023-04-22T07:17:44.958Z,25.31
2023-04-22T07:18:44.937Z,24.81
2023-04-22T07:19:44.896Z,24.35
2023-04-22T07:20:45.639Z,24.57
2023-04-22T07:21:44.883Z,24.81
2023-04-22T07:22:44.888Z,24.99
2023-04-22T07:23:44.865Z,25.16
2023-04-22T07:24:44.868Z,25.32
2023-04-22T07:25:44.840Z,25.54
2023-04-22T07:26:44.837Z,25.77
2023-04-22T07:27:44.852Z,25.98
2023-04-22T07:28:44.833Z,26.05
2023-04-22T07:29:44.833Z,26.16
2023-04-22T07:30:44.815Z,26.36
2023-04-22T07:31:44.869Z,26.59
2023-04-22T07:32:46.345Z,26.48
2023-04-22T07:33:45.795Z,26.37
2023-04-22T07:34:44.789Z,26.43
2023-04-22T07:35:45.785Z,26.37
2023-04-22T07:36:44.803Z,26.44
2023-04-22T07:37:44.771Z,26.51
2023-04-22T07:38:44.787Z,26.73
2023-04-22T07:39:44.738Z,27.00
2023-04-22T07:40:44.743Z,26.88
2023-04-22T07:41:44.723Z,26.44
2023-04-22T07:42:44.734Z,25.43
2023-04-22T07:43:45.162Z,25.38
2023-04-22T07:44:44.725Z,25.70
2023-04-22T07:45:44.711Z,25.98
2023-04-22T07:46:44.681Z,26.21
2023-04-22T07:47:44.709Z,26.23
2023-04-22T07:48:44.667Z,25.96
2023-04-22T07:49:44.668Z,25.90
2023-04-22T07:50:44.656Z,25.38
2023-04-22T07:51:44.658Z,25.41
2023-04-22T07:52:44.660Z,25.66
2023-04-22T07:53:44.650Z,25.78
2023-04-22T07:54:46.579Z,25.62
2023-04-22T07:55:44.624Z,25.60
2023-04-22T07:56:44.617Z,25.65
2023-04-22T07:57:44.611Z,25.44
2023-04-22T07:58:44.623Z,25.58
2023-04-22T07:59:44.600Z,24.96
2023-04-22T08:00:44.644Z,24.35
2023-04-22T08:01:44.595Z,24.23
2023-04-22T08:02:44.691Z,24.10
2023-04-22T08:03:44.899Z,23.84
2023-04-22T08:04:44.581Z,23.69
2023-04-22T08:05:44.546Z,23.92
2023-04-22T08:06:44.560Z,23.92
2023-04-22T08:07:44.528Z,24.01
2023-04-22T08:08:44.550Z,23.62
2023-04-22T08:09:44.519Z,23.63
2023-04-22T08:10:44.528Z,23.84
2023-04-22T08:11:44.517Z,23.44
2023-04-22T08:12:44.519Z,23.12
2023-04-22T08:13:44.499Z,22.72
2023-04-22T08:14:44.485Z,22.72
2023-04-22T08:15:44.513Z,22.93
2023-04-22T08:16:44.458Z,22.83
2023-04-22T08:17:44.518Z,22.57
2023-04-22T08:18:44.451Z,22.43
2023-04-22T08:19:44.474Z,22.55
2023-04-22T08:20:44.434Z,22.72
2023-04-22T08:21:44.437Z,22.59
2023-04-22T08:22:44.423Z,22.57
2023-04-22T08:23:44.419Z,22.63
2023-04-22T08:24:44.408Z,22.72
2023-04-22T08:25:44.392Z,22.73
2023-04-22T08:26:44.403Z,22.51
2023-04-22T08:27:44.412Z,22.65
2023-04-22T08:28:44.421Z,22.75
2023-04-22T08:29:44.545Z,22.94
2023-04-22T08:30:44.381Z,23.06
2023-04-22T08:31:44.466Z,22.90
2023-04-22T08:32:44.449Z,23.02
2023-04-22T08:33:44.338Z,23.15
2023-04-22T08:34:44.353Z,23.40
2023-04-22T08:35:44.337Z,23.39
2023-04-22T08:36:44.375Z,23.31
2023-04-22T08:37:44.324Z,23.17
2023-04-22T08:38:44.332Z,23.32
2023-04-22T08:39:44.302Z,23.54
2023-04-22T08:40:44.339Z,23.66
2023-04-22T08:41:45.114Z,23.18
2023-04-22T08:42:44.303Z,23.12
2023-04-22T08:43:44.266Z,23.21
2023-04-22T08:44:44.250Z,23.17
2023-04-22T08:45:44.240Z,23.15
2023-04-22T08:46:45.081Z,23.08
2023-04-22T08:47:44.304Z,23.21
2023-04-22T08:48:44.585Z,23.28
2023-04-22T08:49:44.222Z,23.25
2023-04-22T08:50:44.209Z,22.99
2023-04-22T08:51:44.266Z,22.76
2023-04-22T08:52:44.200Z,22.65
2023-04-22T08:53:44.191Z,22.66
2023-04-22T08:54:44.168Z,22.91
2023-04-22T08:55:44.166Z,23.08
2023-04-22T08:56:44.157Z,23.27
2023-04-22T08:57:44.132Z,23.44
2023-04-22T08:58:44.159Z,23.44
2023-04-22T08:59:44.143Z,23.37
2023-04-22T09:00:44.120Z,22.98
2023-04-22T09:01:44.135Z,22.65
2023-04-22T09:02:44.122Z,22.55
2023-04-22T09:03:44.259Z,22.55
2023-04-22T09:04:44.081Z,22.55
2023-04-22T09:05:44.086Z,22.65
2023-04-22T09:06:44.081Z,22.84
2023-04-22T09:07:44.098Z,22.88
2023-04-22T09:08:44.076Z,23.06
2023-04-22T09:09:44.074Z,23.17
2023-04-22T09:10:44.046Z,23.15
2023-04-22T09:11:44.081Z,23.08
2023-04-22T09:12:44.036Z,22.93
2023-04-22T09:13:44.073Z,22.91
2023-04-22T09:14:44.010Z,22.98
2023-04-22T09:15:44.022Z,22.63
2023-04-22T09:16:45.623Z,22.66
2023-04-22T09:17:44.043Z,22.60
2023-04-22T09:18:44.340Z,22.54
2023-04-22T09:19:43.993Z,22.55
2023-04-22T09:20:44.089Z,22.55
2023-04-22T09:21:43.972Z,22.50
2023-04-22T09:22:43.964Z,22.59
2023-04-22T09:23:43.968Z,22.45
2023-04-22T09:24:43.950Z,22.43
2023-04-22T09:25:43.930Z,22.26
2023-04-22T09:26:43.916Z,22.15
2023-04-22T09:27:43.910Z,22.13
2023-04-22T09:28:43.900Z,22.08
2023-04-22T09:29:43.901Z,22.00
2023-04-22T09:30:43.884Z,22.20
2023-04-22T09:31:43.895Z,22.28
2023-04-22T09:32:43.890Z,22.23
2023-04-22T09:33:43.865Z,22.10
2023-04-22T09:34:43.863Z,22.14
2023-04-22T09:35:43.859Z,22.15
2023-04-22T09:36:43.853Z,22.30
2023-04-22T09:37:49.497Z,22.00
2023-04-22T09:38:45.809Z,21.67
2023-04-22T09:39:43.815Z,21.60
2023-04-22T09:40:43.810Z,21.62
2023-04-22T09:41:43.802Z,21.72
2023-04-22T09:42:43.800Z,21.75
2023-04-22T09:43:44.632Z,21.96
2023-04-22T09:44:43.848Z,21.96
2023-04-22T09:45:43.803Z,21.99
2023-04-22T09:46:43.776Z,22.04
2023-04-22T09:47:43.777Z,21.89
2023-04-22T09:48:43.739Z,21.79
2023-04-22T09:49:43.949Z,21.79
2023-04-22T09:50:43.723Z,22.02
2023-04-22T09:51:43.714Z,22.15
2023-04-22T09:52:43.726Z,22.30
2023-04-22T09:53:43.714Z,22.14
2023-04-22T09:54:43.703Z,22.15
2023-04-22T09:55:43.702Z,22.28
2023-04-22T09:56:43.682Z,22.28
2023-04-22T09:57:43.662Z,22.23
2023-04-22T09:58:43.679Z,22.35
2023-04-22T09:59:43.662Z,22.43
2023-04-22T10:00:43.649Z,22.51
2023-04-22T10:01:43.683Z,22.59
2023-04-22T10:02:43.796Z,22.66
2023-04-22T10:03:43.659Z,22.59
2023-04-22T10:04:43.620Z,22.50
2023-04-22T10:05:43.597Z,22.25
2023-04-22T10:06:43.605Z,22.29
2023-04-22T10:07:43.684Z,22.11
2023-04-22T10:08:43.591Z,21.91
2023-04-22T10:09:43.573Z,21.79
2023-04-22T10:10:43.592Z,21.83
2023-04-22T10:11:43.585Z,21.93
2023-04-22T10:12:43.540Z,22.02
2023-04-22T10:13:43.556Z,22.13
2023-04-22T10:14:44.561Z,22.22
2023-04-22T10:15:43.521Z,22.18
2023-04-22T10:16:43.586Z,22.33
2023-04-22T10:17:43.570Z,22.43
2023-04-22T10:18:43.512Z,22.25
2023-04-22T10:19:43.520Z,22.18
2023-04-22T10:20:43.504Z,22.14
2023-04-22T10:21:43.487Z,22.15
2023-04-22T10:22:43.493Z,22.25
2023-04-22T10:23:43.491Z,22.36
2023-04-22T10:24:43.492Z,22.35
2023-04-22T10:25:43.447Z,22.18
2023-04-22T10:26:43.642Z,22.20
2023-04-22T10:27:43.426Z,22.13
2023-04-22T10:28:43.411Z,22.13
2023-04-22T10:29:43.778Z,22.08
2023-04-22T10:30:48.351Z,22.06
2023-04-22T10:31:43.422Z,22.29
2023-04-22T10:32:44.250Z,22.32
2023-04-22T10:33:43.396Z,22.38
2023-04-22T10:34:43.365Z,22.62
2023-04-22T10:35:43.390Z,22.73
2023-04-22T10:36:43.368Z,23.08
2023-04-22T10:37:43.403Z,22.73
2023-04-22T10:38:43.347Z,22.75
2023-04-22T10:39:43.600Z,22.96
2023-04-22T10:40:43.311Z,23.03
2023-04-22T10:41:43.316Z,23.08
2023-04-22T10:42:43.324Z,23.09
2023-04-22T10:43:43.299Z,23.36
2023-04-22T10:44:43.301Z,23.17
2023-04-22T10:45:43.281Z,23.34
2023-04-22T10:46:43.312Z,23.58
2023-04-22T10:47:43.280Z,23.46
2023-04-22T10:48:44.253Z,23.43
2023-04-22T10:49:43.257Z,23.46
2023-04-22T10:50:43.241Z,23.40
2023-04-22T10:51:43.235Z,23.10
2023-04-22T10:52:43.238Z,22.78
2023-04-22T10:53:43.261Z,22.57
2023-04-22T10:54:43.219Z,22.65
2023-04-22T10:55:43.210Z,22.65
2023-04-22T10:56:51.874Z,22.85
2023-04-22T10:57:45.240Z,22.78
2023-04-22T10:58:43.243Z,22.78
2023-04-22T10:59:43.198Z,22.76
2023-04-22T11:00:53.231Z,22.81
2023-04-22T11:01:45.223Z,22.83
2023-04-22T11:02:43.272Z,22.83
2023-04-22T11:03:43.218Z,22.87
2023-04-22T11:04:43.160Z,23.13
2023-04-22T11:05:43.143Z,23.13
2023-04-22T11:06:43.148Z,23.18
2023-04-22T11:07:43.119Z,23.25
2023-04-22T11:08:43.108Z,23.37
2023-04-22T11:09:43.098Z,23.43
2023-04-22T11:10:44.446Z,23.43
2023-04-22T11:11:44.092Z,23.28
2023-04-22T11:12:43.106Z,23.17
2023-04-22T11:13:43.114Z,23.12
2023-04-22T11:14:43.062Z,23.12
2023-04-22T11:15:43.056Z,23.13
2023-04-22T11:16:43.060Z,23.13
2023-04-22T11:17:43.097Z,23.21
2023-04-22T11:18:43.070Z,22.93
2023-04-22T11:19:43.021Z,23.03
2023-04-22T11:20:43.016Z,23.12
2023-04-22T11:21:43.020Z,23.31
2023-04-22T11:22:42.981Z,23.47
2023-04-22T11:23:43.982Z,23.44
2023-04-22T11:24:42.976Z,23.10
2023-04-22T11:25:43.005Z,23.27
2023-04-22T11:26:42.994Z,23.31
2023-04-22T11:27:42.976Z,23.27
2023-04-22T11:28:42.963Z,23.40
2023-04-22T11:29:42.936Z,23.28
2023-04-22T11:30:42.942Z,23.10
2023-04-22T11:31:42.983Z,23.21
2023-04-22T11:32:42.959Z,23.08
2023-04-22T11:33:42.908Z,23.03
2023-04-22T11:34:42.910Z,23.12
2023-04-22T11:35:42.906Z,23.24
2023-04-22T11:36:43.670Z,23.24
2023-04-22T11:37:42.877Z,23.32
2023-04-22T11:38:42.869Z,23.37
2023-04-22T11:40:01.669Z,23.24
2023-04-22T11:40:46.601Z,23.06
2023-04-22T11:41:43.855Z,23.00
2023-04-22T11:42:42.863Z,22.93
2023-04-22T11:43:42.843Z,23.05
2023-04-22T11:44:42.822Z,22.94
2023-04-22T11:45:43.801Z,22.96
2023-04-22T11:46:42.810Z,23.17
2023-04-22T11:47:42.820Z,23.03
2023-04-22T11:48:42.801Z,23.00
2023-04-22T11:49:42.789Z,23.23
2023-04-22T11:50:42.810Z,23.05
2023-04-22T11:51:43.685Z,22.88
2023-04-22T11:52:42.776Z,22.80
2023-04-22T11:53:42.756Z,22.83
2023-04-22T11:54:42.755Z,23.00
2023-04-22T11:55:42.806Z,23.27
2023-04-22T11:56:42.719Z,23.43
2023-04-22T11:57:42.734Z,23.59
2023-04-22T11:58:42.725Z,23.81
2023-04-22T11:59:42.690Z,23.84
2023-04-22T12:00:42.710Z,23.83
2023-04-22T12:01:42.684Z,23.36
2023-04-22T12:02:42.797Z,23.10
2023-04-22T12:03:43.021Z,23.08
2023-04-22T12:04:42.728Z,23.06
2023-04-22T12:05:42.700Z,23.10
2023-04-22T12:06:42.664Z,23.10
2023-04-22T12:07:42.642Z,23.17
2023-04-22T12:08:42.787Z,23.24
2023-04-22T12:09:42.660Z,23.12
2023-04-22T12:10:42.644Z,23.10
2023-04-22T12:11:42.633Z,23.18
2023-04-22T12:12:42.604Z,23.34
2023-04-22T12:13:42.640Z,23.20
2023-04-22T12:14:42.581Z,23.34
2023-04-22T12:15:42.568Z,23.47
2023-04-22T12:16:42.647Z,23.68
2023-04-22T12:17:42.590Z,23.91
2023-04-22T12:18:42.590Z,24.03
2023-04-22T12:19:42.749Z,24.05
2023-04-22T12:20:42.547Z,24.02
2023-04-22T12:21:42.542Z,23.95
2023-04-22T12:22:42.516Z,23.86
2023-04-22T12:23:42.516Z,23.83
2023-04-22T12:24:42.512Z,23.99
2023-04-22T12:25:42.533Z,24.23
2023-04-22T12:26:42.488Z,24.40
2023-04-22T12:27:42.484Z,23.96
2023-04-22T12:28:42.460Z,23.87
2023-04-22T12:29:42.470Z,23.92
2023-04-22T12:30:42.553Z,23.99
2023-04-22T12:31:42.516Z,23.98
2023-04-22T12:32:42.442Z,24.06
2023-04-22T12:33:42.471Z,24.14
2023-04-22T12:34:43.200Z,24.24
2023-04-22T12:35:42.424Z,23.96
2023-04-22T12:36:42.408Z,23.74
2023-04-22T12:37:42.396Z,23.36
2023-04-22T12:38:42.403Z,23.40
2023-04-22T12:39:42.392Z,23.18
2023-04-22T12:40:42.386Z,23.20
2023-04-22T12:41:42.365Z,23.10
2023-04-22T12:42:42.365Z,22.96
2023-04-22T12:43:42.355Z,22.90
2023-04-22T12:44:42.344Z,22.96
2023-04-22T12:45:42.349Z,22.88
2023-04-22T12:46:42.922Z,22.78
2023-04-22T12:47:42.730Z,22.85
2023-04-22T12:48:42.327Z,22.84
2023-04-22T12:49:43.566Z,22.68
2023-04-22T12:50:42.303Z,22.62
2023-04-22T12:51:42.310Z,22.78
2023-04-22T12:52:42.301Z,22.93
2023-04-22T12:53:42.278Z,23.03
2023-04-22T12:54:42.276Z,22.90
2023-04-22T12:55:44.568Z,22.83
2023-04-22T12:56:42.246Z,22.96
2023-04-22T12:57:42.273Z,22.94
2023-04-22T12:58:42.256Z,23.00
2023-04-22T12:59:42.441Z,23.08
2023-04-22T13:00:43.164Z,23.23
2023-04-22T13:01:42.245Z,23.18